Time;durP1;ratioP1;P1;durP2;ratioP2;P2;SDS_P1;SDS_P2;PMS_P1;PMS_P2;Temp;Humidity;BMP_temperature;BMP_pressure;BME280_temperature;BME280_humidity;BME280_pressure;Samples;Min_cycle;Max_cycle;Signal;HPM_P1;HPM_P2
2022/06/06 00:01:54;;;;;;;5.47;3.63;;;17.90;99.90;;;;;;5007508;28;20101;-70
2022/06/06 00:04:22;;;;;;;7.53;3.92;;;17.80;99.90;;;;;;5007456;28;20029;-69
2022/06/06 00:06:50;;;;;;;5.88;3.63;;;17.90;99.90;;;;;;5025115;28;20026;-70
2022/06/06 00:09:16;;;;;;;7.35;4.03;;;17.80;99.90;;;;;;5024964;28;20033;-68
2022/06/06 00:11:43;;;;;;;6.22;3.53;;;17.80;99.90;;;;;;5025034;28;20022;-70
2022/06/06 00:14:11;;;;;;;5.35;3.08;;;17.90;99.90;;;;;;5025302;28;20097;-71
2022/06/06 00:16:41;;;;;;;11.23;3.30;;;17.80;99.90;;;;;;5003348;28;20085;-72
2022/06/06 00:19:08;;;;;;;6.70;3.40;;;17.80;99.90;;;;;;5005456;28;20026;-70
2022/06/06 00:21:34;;;;;;;7.53;3.45;;;17.80;99.90;;;;;;5004126;28;20072;-71
2022/06/06 00:24:00;;;;;;;4.68;2.75;;;17.80;99.90;;;;;;5004940;28;20018;-69
2022/06/06 00:26:28;;;;;;;5.38;2.72;;;17.70;99.90;;;;;;5005493;28;20065;-72
2022/06/06 00:28:54;;;;;;;5.78;2.75;;;17.70;99.90;;;;;;5004629;28;20030;-70
2022/06/06 00:36:50;;;;;;;3.55;2.60;;;17.70;99.90;;;;;;5005519;28;20122;-71
2022/06/06 00:39:18;;;;;;;6.80;3.55;;;17.60;99.90;;;;;;5004230;28;20427;-69
2022/06/06 00:41:49;;;;;;;6.22;3.85;;;17.60;99.90;;;;;;5005095;28;20046;-76
2022/06/06 00:44:19;;;;;;;5.90;3.05;;;17.60;99.90;;;;;;5004220;28;20023;-73
2022/06/06 00:46:49;;;;;;;5.65;3.70;;;17.70;99.90;;;;;;5004113;28;20105;-70
2022/06/06 00:49:23;;;;;;;5.35;3.15;;;17.60;99.90;;;;;;5004960;28;20025;-73
2022/06/06 00:51:50;;;;;;;6.55;3.60;;;17.60;99.90;;;;;;5005367;28;20027;-70
2022/06/06 00:54:23;;;;;;;5.22;3.28;;;17.60;99.90;;;;;;5005447;28;20069;-69
2022/06/06 00:56:54;;;;;;;5.47;3.08;;;17.50;99.90;;;;;;5004960;28;20050;-70
2022/06/06 00:59:23;;;;;;;6.72;3.08;;;17.40;99.90;;;;;;5005092;28;20022;-70
2022/06/06 01:01:49;;;;;;;3.85;2.38;;;17.40;99.90;;;;;;5004510;28;20231;-71
2022/06/06 01:04:17;;;;;;;5.05;3.05;;;17.30;99.90;;;;;;5005124;28;20033;-73
2022/06/06 01:06:45;;;;;;;4.93;3.53;;;17.20;99.90;;;;;;5004733;28;20022;-72
2022/06/06 01:09:17;;;;;;;5.63;3.17;;;17.20;99.90;;;;;;5004799;28;20026;-70
2022/06/06 01:11:49;;;;;;;3.65;2.55;;;17.10;99.90;;;;;;5004770;28;20053;-74
2022/06/06 01:14:20;;;;;;;2.50;2.00;;;17.00;99.90;;;;;;5004499;28;20022;-73
2022/06/06 01:17:14;;;;;;;4.53;2.58;;;17.00;99.90;;;;;;5017105;28;20042;-74
2022/06/06 01:19:54;;;;;;;3.08;2.03;;;17.00;99.90;;;;;;5024006;28;20056;-74
2022/06/06 01:22:49;;;;;;;3.55;2.08;;;17.00;99.90;;;;;;5024325;28;20045;-71
2022/06/06 01:25:44;;;;;;;2.37;1.50;;;17.00;99.90;;;;;;5024316;28;20093;-73
2022/06/06 01:28:35;;;;;;;2.75;1.73;;;17.00;99.90;;;;;;5006304;28;20018;-73
2022/06/06 01:31:08;;;;;;;2.08;1.10;;;17.00;99.90;;;;;;5024227;28;20088;-74
2022/06/06 01:33:49;;;;;;;2.10;1.60;;;17.10;99.90;;;;;;5023967;28;20026;-74
2022/06/06 01:36:14;;;;;;;2.75;1.40;;;17.00;99.90;;;;;;5023572;28;20092;-73
2022/06/06 01:38:40;;;;;;;1.50;1.00;;;16.90;99.90;;;;;;5024138;28;20025;-70
2022/06/06 01:41:13;;;;;;;2.63;1.17;;;17.00;99.90;;;;;;5024118;28;20034;-69
2022/06/06 01:43:58;;;;;;;2.15;1.15;;;17.00;99.90;;;;;;5006179;28;20065;-72
2022/06/06 01:46:30;;;;;;;1.70;0.93;;;17.00;99.90;;;;;;5023978;28;20029;-71
2022/06/06 01:48:56;;;;;;;1.58;1.00;;;17.00;99.90;;;;;;5014425;28;20121;-72
2022/06/06 01:51:25;;;;;;;2.00;1.15;;;17.00;99.90;;;;;;5023929;28;20101;-72
2022/06/06 01:53:52;;;;;;;0.88;0.77;;;17.00;99.90;;;;;;5023703;28;20061;-72
2022/06/06 01:56:21;;;;;;;2.05;1.25;;;16.90;99.90;;;;;;5023306;28;20022;-72
2022/06/06 01:58:51;;;;;;;1.75;1.15;;;17.00;99.90;;;;;;5022932;28;20025;-75
2022/06/06 02:01:17;;;;;;;1.75;0.85;;;17.00;99.90;;;;;;5023472;28;20038;-73
2022/06/06 02:03:43;;;;;;;1.58;1.27;;;17.00;99.90;;;;;;5023514;28;20028;-72
2022/06/06 02:06:09;;;;;;;2.88;1.77;;;17.00;99.90;;;;;;5023660;28;20117;-70
2022/06/06 02:08:35;;;;;;;1.48;1.13;;;16.90;99.90;;;;;;5023774;28;20021;-72
2022/06/06 02:11:02;;;;;;;3.20;1.58;;;17.00;99.90;;;;;;5023712;28;20073;-72
2022/06/06 02:13:28;;;;;;;2.05;1.33;;;17.00;99.90;;;;;;5023575;28;20030;-71
2022/06/06 02:15:54;;;;;;;2.83;1.50;;;17.00;99.90;;;;;;5022454;28;20560;-73
2022/06/06 02:18:22;;;;;;;2.20;1.27;;;17.10;99.90;;;;;;5023365;28;20030;-71
2022/06/06 02:20:47;;;;;;;1.63;1.15;;;17.00;99.90;;;;;;5005416;28;20036;-72
2022/06/06 02:23:14;;;;;;;1.40;1.08;;;17.00;99.90;;;;;;5023393;28;20073;-72
2022/06/06 02:25:41;;;;;;;1.88;1.15;;;16.90;99.90;;;;;;5023492;28;20021;-72
2022/06/06 02:28:08;;;;;;;1.65;1.00;;;17.00;99.90;;;;;;5022914;28;20030;-71
2022/06/06 02:30:36;;;;;;;2.25;0.95;;;17.00;99.90;;;;;;5023029;28;20046;-73
2022/06/06 02:33:02;;;;;;;2.83;1.00;;;16.90;99.90;;;;;;5023431;28;20029;-74
2022/06/06 02:35:34;;;;;;;2.40;1.70;;;16.90;99.90;;;;;;5005479;28;20394;-70
2022/06/06 02:38:00;;;;;;;1.15;0.93;;;16.90;99.90;;;;;;5022892;28;20386;-71
2022/06/06 02:40:28;;;;;;;2.13;1.10;;;16.90;99.90;;;;;;5022875;28;20044;-72
2022/06/06 02:43:04;;;;;;;1.70;1.13;;;16.80;99.90;;;;;;5005280;28;20069;-72
2022/06/06 02:45:30;;;;;;;2.40;1.10;;;16.80;99.90;;;;;;5005318;28;20057;-72
2022/06/06 02:47:59;;;;;;;1.30;0.85;;;16.80;99.90;;;;;;5022563;28;20078;-72
2022/06/06 02:50:28;;;;;;;1.52;0.90;;;16.80;99.90;;;;;;5005270;28;20046;-73
2022/06/06 02:52:54;;;;;;;0.90;0.70;;;16.80;99.90;;;;;;5022611;28;20045;-73
2022/06/06 02:55:20;;;;;;;2.30;1.40;;;16.80;99.90;;;;;;5022472;28;20037;-74
2022/06/06 02:57:51;;;;;;;2.08;1.08;;;16.80;99.90;;;;;;5022602;28;20216;-71
2022/06/06 03:00:21;;;;;;;3.17;1.15;;;16.80;99.90;;;;;;5022467;28;20498;-71
2022/06/06 03:02:47;;;;;;;1.23;0.93;;;16.80;99.90;;;;;;5004875;28;20061;-72
2022/06/06 03:05:14;;;;;;;1.63;0.88;;;16.80;99.90;;;;;;5022212;28;20022;-72
2022/06/06 03:08:00;;;;;;;2.78;1.25;;;16.70;99.90;;;;;;5022738;28;20395;-71
2022/06/06 03:11:05;;;;;;;2.78;1.52;;;16.80;99.90;;;;;;5021389;28;20028;-72
2022/06/06 03:14:08;;;;;;;3.13;1.52;;;16.80;99.90;;;;;;5022128;28;20127;-73
2022/06/06 03:22:25;;;;;;;6.50;2.53;;;16.80;99.90;;;;;;5022333;28;20083;-71
2022/06/06 03:25:20;;;;;;;2.88;1.90;;;16.80;99.90;;;;;;5022119;28;20084;-71
2022/06/06 03:28:00;;;;;;;3.45;1.90;;;16.80;99.90;;;;;;5022371;28;20034;-70
2022/06/06 03:30:39;;;;;;;5.15;2.20;;;16.70;99.90;;;;;;5022147;28;20018;-69
2022/06/06 03:33:27;;;;;;;3.15;1.92;;;16.70;99.90;;;;;;5022631;28;20029;-72
2022/06/06 03:36:03;;;;;;;6.07;2.47;;;16.70;99.90;;;;;;5004650;28;20068;-70
2022/06/06 03:38:32;;;;;;;4.03;2.30;;;16.70;99.90;;;;;;5022447;28;20383;-71
2022/06/06 03:41:27;;;;;;;4.70;2.70;;;16.70;99.90;;;;;;5021967;28;20170;-72
2022/06/06 03:44:17;;;;;;;10.35;3.38;;;16.60;99.90;;;;;;5022037;28;20046;-71
2022/06/06 03:46:54;;;;;;;5.07;3.20;;;16.60;99.90;;;;;;5022111;28;20034;-72
2022/06/06 03:49:41;;;;;;;6.10;3.58;;;16.60;99.90;;;;;;5022340;28;20030;-70
2022/06/06 03:52:53;;;;;;;9.48;4.10;;;16.50;99.90;;;;;;5022014;28;20681;-69
2022/06/06 03:55:32;;;;;;;7.25;4.05;;;16.50;99.90;;;;;;4960998;29;20122;-71
2022/06/06 03:58:03;;;;;;;8.25;3.88;;;16.50;99.90;;;;;;4961367;28;20058;-72
2022/06/06 04:00:30;;;;;;;5.45;3.10;;;16.60;99.90;;;;;;5000543;28;20084;-72
2022/06/06 04:02:57;;;;;;;8.45;4.45;;;16.50;99.90;;;;;;5021639;28;20399;-70
2022/06/06 04:05:22;;;;;;;9.95;3.78;;;16.60;99.90;;;;;;5022322;28;20014;-71
2022/06/06 04:07:48;;;;;;;8.93;4.47;;;16.50;99.90;;;;;;5004166;28;20474;-71
2022/06/06 04:10:15;;;;;;;11.10;4.65;;;16.50;99.90;;;;;;5022298;28;20479;-72
2022/06/06 04:12:44;;;;;;;9.80;4.82;;;16.50;99.90;;;;;;5021845;28;20423;-74
2022/06/06 04:15:29;;;;;;;13.88;5.57;;;16.40;99.90;;;;;;5021730;28;20022;-71
2022/06/06 04:18:04;;;;;;;23.90;5.80;;;16.50;99.90;;;;;;4981355;28;20156;-71
2022/06/06 04:20:57;;;;;;;12.77;6.53;;;16.50;99.90;;;;;;5022021;28;20026;-71
2022/06/06 04:23:57;;;;;;;11.60;6.90;;;16.50;99.90;;;;;;5024814;28;20073;-75
2022/06/06 04:26:42;;;;;;;15.38;6.97;;;16.50;99.90;;;;;;5025085;28;20034;-72
2022/06/06 04:29:25;;;;;;;16.30;7.43;;;16.50;99.90;;;;;;5023927;28;20021;-71
2022/06/06 04:32:15;;;;;;;13.98;6.57;;;16.40;99.90;;;;;;5025211;28;20041;-71
2022/06/06 04:35:06;;;;;;;18.35;8.10;;;16.50;99.90;;;;;;5025248;28;20017;-70
2022/06/06 04:37:46;;;;;;;11.77;6.38;;;16.50;99.90;;;;;;5025156;28;20056;-69
2022/06/06 04:40:20;;;;;;;14.10;7.13;;;16.50;99.90;;;;;;5024989;28;20030;-72
2022/06/06 04:43:22;;;;;;;13.55;6.78;;;16.50;99.90;;;;;;5007539;28;20045;-73
2022/06/06 04:45:54;;;;;;;9.10;4.53;;;16.50;99.90;;;;;;5024382;28;20022;-72
2022/06/06 04:48:21;;;;;;;14.32;5.63;;;16.50;99.90;;;;;;5024954;28;20089;-71
2022/06/06 04:50:47;;;;;;;8.77;4.90;;;16.50;99.90;;;;;;5024091;28;20069;-72
2022/06/06 04:53:20;;;;;;;9.35;4.22;;;16.50;99.90;;;;;;5024203;28;20026;-72
2022/06/06 04:55:49;;;;;;;10.73;4.53;;;16.40;99.90;;;;;;5005732;28;20118;-72
2022/06/06 04:58:17;;;;;;;10.23;4.68;;;16.50;99.90;;;;;;5023961;28;20030;-71
2022/06/06 05:00:44;;;;;;;10.75;5.70;;;16.50;99.90;;;;;;5022680;28;20037;-71
2022/06/06 05:03:12;;;;;;;10.57;5.35;;;16.50;99.90;;;;;;5023915;28;20735;-74
2022/06/06 05:06:17;;;;;;;15.13;6.60;;;16.50;99.90;;;;;;5024462;28;20025;-70
2022/06/06 05:09:00;;;;;;;12.50;7.22;;;16.50;99.90;;;;;;5003051;28;20038;-71
2022/06/06 05:11:47;;;;;;;16.70;6.35;;;16.50;99.90;;;;;;5024449;28;20028;-70
2022/06/06 05:14:43;;;;;;;10.88;6.05;;;16.40;99.90;;;;;;5024346;28;20045;-69
2022/06/06 05:17:25;;;;;;;12.52;6.82;;;16.50;99.90;;;;;;5022540;28;20046;-70
2022/06/06 05:20:42;;;;;;;23.88;8.13;;;16.50;99.90;;;;;;5023994;28;20037;-70
2022/06/06 05:23:13;;;;;;;21.05;7.93;;;16.50;99.90;;;;;;5022189;28;20093;-71
2022/06/06 05:26:09;;;;;;;16.38;7.45;;;16.50;99.90;;;;;;5023038;28;20040;-69
2022/06/06 05:29:18;;;;;;;15.02;6.18;;;16.50;99.90;;;;;;5021411;28;20073;-69
2022/06/06 05:31:49;;;;;;;15.10;6.80;;;16.40;99.90;;;;;;5018140;28;20029;-71
2022/06/06 05:34:21;;;;;;;12.35;6.53;;;16.40;99.90;;;;;;5017294;28;20038;-74
2022/06/06 05:36:59;;;;;;;16.13;7.65;;;16.30;99.90;;;;;;5022772;28;20034;-72
2022/06/06 05:39:49;;;;;;;16.13;7.38;;;16.30;99.90;;;;;;5022773;28;20826;-69
2022/06/06 05:43:01;;;;;;;21.30;8.85;;;16.30;99.90;;;;;;5022846;28;20089;-71
2022/06/06 05:45:51;;;;;;;19.23;7.68;;;16.20;99.90;;;;;;4991404;28;20046;-77
2022/06/06 05:48:33;;;;;;;18.45;8.18;;;16.10;99.90;;;;;;5023615;28;20038;-68
2022/06/06 05:51:05;;;;;;;20.90;7.78;;;16.10;99.90;;;;;;5021987;28;20127;-74
2022/06/06 05:53:33;;;;;;;14.60;7.38;;;16.00;99.90;;;;;;5023088;28;20096;-72
2022/06/06 05:56:27;;;;;;;12.95;6.80;;;16.00;99.90;;;;;;5021728;28;20025;-74
2022/06/06 05:58:52;;;;;;;12.40;6.93;;;16.00;99.90;;;;;;5002735;28;20026;-70
2022/06/06 06:01:45;;;;;;;14.30;7.03;;;15.90;99.90;;;;;;5021042;28;20032;-70
2022/06/06 06:04:27;;;;;;;24.48;8.18;;;15.90;99.90;;;;;;5023341;28;20022;-70
2022/06/06 06:07:22;;;;;;;13.10;6.22;;;16.00;99.90;;;;;;5021319;28;20499;-71
2022/06/06 06:10:18;;;;;;;13.77;6.60;;;16.00;99.90;;;;;;5005617;28;20030;-72
2022/06/06 06:13:04;;;;;;;19.05;7.72;;;16.00;99.90;;;;;;5018956;28;20052;-68
2022/06/06 06:15:43;;;;;;;13.48;6.97;;;16.00;99.90;;;;;;5021202;28;20029;-71
2022/06/06 06:18:18;;;;;;;14.35;6.15;;;16.00;99.90;;;;;;5019731;28;20060;-70
2022/06/06 06:21:08;;;;;;;12.18;6.88;;;16.00;99.90;;;;;;5022976;28;20014;-70
2022/06/06 06:23:39;;;;;;;13.48;6.35;;;16.00;99.90;;;;;;5005157;28;20038;-72
2022/06/06 06:26:06;;;;;;;14.13;6.18;;;16.00;99.90;;;;;;5005656;28;20026;-71
2022/06/06 06:28:36;;;;;;;14.75;6.80;;;16.00;99.90;;;;;;5022950;28;20041;-70
2022/06/06 06:31:31;;;;;;;17.48;6.03;;;16.00;99.90;;;;;;5021821;28;20029;-71
2022/06/06 06:34:28;;;;;;;17.20;6.70;;;16.10;99.90;;;;;;5021766;28;20022;-70
2022/06/06 06:37:14;;;;;;;10.90;6.28;;;16.10;99.90;;;;;;5022203;28;20033;-74
2022/06/06 06:39:43;;;;;;;15.27;5.97;;;16.20;99.90;;;;;;5019901;28;20030;-74
2022/06/06 06:42:34;;;;;;;14.68;5.60;;;16.30;99.90;;;;;;5020710;28;20037;-70
2022/06/06 06:45:08;;;;;;;13.32;6.43;;;16.30;99.90;;;;;;5021835;28;20030;-71
2022/06/06 06:47:36;;;;;;;10.45;5.28;;;16.30;99.90;;;;;;5023085;28;20037;-73
2022/06/06 06:50:30;;;;;;;16.65;6.22;;;16.30;99.90;;;;;;5021133;28;20041;-73
2022/06/06 06:53:07;;;;;;;18.67;6.15;;;16.30;99.90;;;;;;5003447;28;20034;-69
2022/06/06 06:55:56;;;;;;;15.10;6.20;;;16.20;99.90;;;;;;5021781;28;20040;-73
2022/06/06 06:58:51;;;;;;;15.35;5.53;;;16.20;99.90;;;;;;5009740;28;20052;-72
2022/06/06 07:08:32;;;;;;;8.63;5.22;;;16.10;99.90;;;;;;5019057;28;20026;-71
2022/06/06 07:11:00;;;;;;;10.30;4.97;;;16.10;99.90;;;;;;5016006;28;20041;-70
2022/06/06 07:13:42;;;;;;;11.88;5.28;;;16.10;99.90;;;;;;5021852;28;20030;-69
2022/06/06 07:16:33;;;;;;;8.68;4.88;;;16.10;99.90;;;;;;5021415;28;20053;-70
2022/06/06 07:19:13;;;;;;;11.23;5.15;;;16.20;99.90;;;;;;5017648;28;20038;-71
2022/06/06 07:21:40;;;;;;;9.73;4.75;;;16.30;99.90;;;;;;5017909;28;20093;-72
2022/06/06 07:24:10;;;;;;;9.52;4.78;;;16.40;99.90;;;;;;5020051;28;20026;-77
2022/06/06 07:26:41;;;;;;;10.80;4.68;;;16.50;99.90;;;;;;5020761;28;20033;-70
2022/06/06 07:29:12;;;;;;;8.57;5.20;;;16.60;99.90;;;;;;5016769;28;20168;-69
2022/06/06 07:31:48;;;;;;;7.57;4.07;;;16.70;99.90;;;;;;5022180;28;20073;-70
2022/06/06 07:34:39;;;;;;;5.63;4.28;;;16.70;99.90;;;;;;5022231;28;20030;-71
2022/06/06 07:37:54;;;;;;;6.90;4.05;;;16.90;99.90;;;;;;5021665;28;20101;-72
2022/06/06 07:40:42;;;;;;;6.25;3.53;;;17.00;99.90;;;;;;4940145;29;20040;-72
2022/06/06 07:43:45;;;;;;;6.18;3.08;;;17.10;99.90;;;;;;5021411;28;20045;-72
2022/06/06 07:46:29;;;;;;;9.00;3.65;;;17.20;99.90;;;;;;5020774;28;20158;-70
2022/06/06 07:49:13;;;;;;;17.85;4.13;;;17.20;99.90;;;;;;5021027;28;20783;-69
2022/06/06 07:51:49;;;;;;;7.53;3.83;;;17.20;99.90;;;;;;5019993;28;20069;-74
2022/06/06 07:55:03;;;;;;;6.68;3.90;;;17.20;99.90;;;;;;5020843;28;20022;-70
2022/06/06 07:57:56;;;;;;;5.80;3.78;;;17.20;99.90;;;;;;5006807;28;20069;-71
2022/06/06 08:00:25;;;;;;;11.68;4.07;;;17.10;99.90;;;;;;5025476;28;20038;-70
2022/06/06 08:03:11;;;;;;;8.38;3.60;;;17.20;99.90;;;;;;5023722;28;20030;-70
2022/06/06 08:06:12;;;;;;;10.80;4.47;;;17.20;99.90;;;;;;5025994;28;20034;-71
2022/06/06 08:09:10;;;;;;;7.53;4.13;;;17.20;99.90;;;;;;5025154;28;20080;-71
2022/06/06 08:11:42;;;;;;;8.77;3.88;;;17.20;99.90;;;;;;5022489;28;20057;-74
2022/06/06 08:14:34;;;;;;;7.20;3.85;;;17.30;99.90;;;;;;5025193;28;20084;-70
2022/06/06 08:17:41;;;;;;;9.75;3.33;;;17.30;99.90;;;;;;5022911;28;20057;-69
2022/06/06 08:20:21;;;;;;;8.20;3.60;;;17.40;99.90;;;;;;4930839;28;20033;-72
2022/06/06 08:22:50;;;;;;;10.82;4.07;;;17.30;99.90;;;;;;5022488;28;20026;-68
2022/06/06 08:25:25;;;;;;;8.55;3.78;;;17.30;99.90;;;;;;5022683;28;20026;-73
2022/06/06 08:27:53;;;;;;;13.95;4.93;;;17.30;99.90;;;;;;5006027;28;20429;-69
2022/06/06 08:30:21;;;;;;;7.40;3.17;;;17.30;99.90;;;;;;5024997;28;20474;-73
2022/06/06 08:32:47;;;;;;;10.38;4.63;;;17.30;99.90;;;;;;5023805;28;20057;-72
2022/06/06 08:35:13;;;;;;;7.03;4.18;;;17.40;99.90;;;;;;5024645;28;20028;-69
2022/06/06 08:37:57;;;;;;;9.88;4.45;;;17.40;99.90;;;;;;5025514;28;20054;-70
2022/06/06 08:40:35;;;;;;;9.32;4.82;;;17.30;99.90;;;;;;5024135;28;20427;-67
2022/06/06 08:43:06;;;;;;;8.27;4.22;;;17.20;99.90;;;;;;5007106;28;20064;-69
2022/06/06 08:45:47;;;;;;;9.35;4.70;;;17.20;99.90;;;;;;5023348;28;20060;-68
2022/06/06 08:48:25;;;;;;;9.32;5.22;;;17.10;99.90;;;;;;5025018;28;20022;-72
2022/06/06 08:51:22;;;;;;;8.07;4.38;;;17.10;99.90;;;;;;5023231;28;20050;-69
2022/06/06 08:54:25;;;;;;;8.65;4.95;;;17.00;99.90;;;;;;5023498;28;20502;-70
2022/06/06 08:57:10;;;;;;;14.05;5.95;;;16.90;99.90;;;;;;5025644;28;20034;-71
2022/06/06 08:59:54;;;;;;;;;;;16.80;99.90;;;;;;5028054;28;20030;-76
2022/06/06 09:02:41;;;;;;;9.98;5.32;;;16.70;99.90;;;;;;5023819;28;19918;-73
2022/06/06 09:05:12;;;;;;;9.20;5.05;;;16.60;99.90;;;;;;5025091;28;20511;-71
2022/06/06 09:08:16;;;;;;;18.58;6.47;;;16.50;99.90;;;;;;5024888;28;20026;-71
2022/06/06 09:11:22;;;;;;;10.23;6.05;;;16.60;99.90;;;;;;5024809;28;20065;-71
2022/06/06 09:13:59;;;;;;;15.90;6.35;;;16.70;99.90;;;;;;5013024;28;20034;-72
2022/06/06 09:16:55;;;;;;;9.55;5.22;;;16.90;99.90;;;;;;5024370;28;20073;-71
2022/06/06 09:19:37;;;;;;;14.52;5.63;;;17.00;99.90;;;;;;5006848;28;20073;-70
2022/06/06 09:22:32;;;;;;;12.77;6.38;;;17.10;99.90;;;;;;5023127;28;20053;-71
2022/06/06 09:25:16;;;;;;;;;;;17.40;99.90;;;;;;5022808;28;20461;-71
2022/06/06 09:27:54;;;;;;;15.93;5.80;;;17.50;99.90;;;;;;5022665;28;19917;-72
2022/06/06 09:30:35;;;;;;;14.85;6.10;;;17.50;99.90;;;;;;5014966;28;20068;-70
2022/06/06 09:33:23;;;;;;;9.73;4.80;;;17.50;99.90;;;;;;5017405;28;20445;-70
2022/06/06 09:36:19;;;;;;;17.42;5.63;;;17.60;99.90;;;;;;5022496;28;20090;-76
2022/06/06 09:39:04;;;;;;;9.57;5.70;;;17.60;99.90;;;;;;5021848;28;20030;-69
2022/06/06 09:41:36;;;;;;;;;;;17.60;99.90;;;;;;5023333;28;20033;-71
2022/06/06 09:44:11;;;;;;;10.40;5.53;;;17.60;99.90;;;;;;5024191;28;19913;-71
2022/06/06 09:46:55;;;;;;;;;;;17.70;99.90;;;;;;5024299;28;20085;-70
2022/06/06 09:49:26;;;;;;;10.43;5.78;;;17.80;99.90;;;;;;5024113;28;19905;-71
2022/06/06 09:52:00;;;;;;;13.35;4.95;;;17.90;99.90;;;;;;5023872;28;20045;-69
2022/06/06 10:00:24;;;;;;;13.40;4.93;;;18.60;99.90;;;;;;5022810;28;20044;-70
2022/06/06 10:03:12;;;;;;;9.38;5.53;;;19.00;99.90;;;;;;5023570;28;20030;-70
2022/06/06 10:06:12;;;;;;;8.98;4.40;;;19.30;99.90;;;;;;5005041;28;20382;-71
2022/06/06 10:09:13;;;;;;;10.00;3.80;;;19.60;99.90;;;;;;5023073;28;20034;-73
2022/06/06 10:11:44;;;;;;;5.60;3.88;;;19.70;99.90;;;;;;5024029;28;20041;-70
2022/06/06 10:14:58;;;;;;;12.80;3.83;;;19.90;99.90;;;;;;5023563;28;20034;-73
2022/06/06 10:17:37;;;;;;;6.28;3.45;;;20.00;99.90;;;;;;4962235;28;20050;-73
2022/06/06 10:20:33;;;;;;;10.32;4.40;;;19.90;99.90;;;;;;5023198;28;20034;-70
2022/06/06 10:23:54;;;;;;;8.90;4.40;;;19.80;99.90;;;;;;5005120;28;20053;-70
2022/06/06 10:26:46;;;;;;;12.25;4.80;;;19.60;99.90;;;;;;4979464;28;20042;-70
2022/06/06 10:29:26;;;;;;;10.38;5.15;;;19.60;99.90;;;;;;5023359;28;20022;-72
2022/06/06 10:32:07;;;;;;;6.70;3.90;;;19.60;99.90;;;;;;5020533;28;20037;-68
2022/06/06 10:34:52;;;;;;;8.40;3.70;;;19.60;99.90;;;;;;5022823;28;20061;-67
2022/06/06 10:38:10;;;;;;;6.72;3.65;;;19.80;99.90;;;;;;5022544;28;20033;-68
2022/06/06 10:41:08;;;;;;;8.43;3.55;;;20.00;99.90;;;;;;5021244;28;20043;-68
2022/06/06 10:44:07;;;;;;;7.05;2.80;;;20.20;99.90;;;;;;5021046;28;20041;-72
2022/06/06 10:46:46;;;;;;;5.60;2.97;;;20.50;99.90;;;;;;5019432;28;20041;-70
2022/06/06 10:49:23;;;;;;;5.93;2.67;;;20.50;99.90;;;;;;5022069;28;20093;-69
2022/06/06 10:52:26;;;;;;;7.30;2.40;;;20.60;99.90;;;;;;5019887;28;20090;-70
2022/06/06 10:55:05;;;;;;;8.32;1.85;;;20.70;99.90;;;;;;5015210;28;20053;-70
2022/06/06 10:58:07;;;;;;;4.28;1.55;;;20.80;99.90;;;;;;5019118;28;20076;-73
2022/06/06 11:01:12;;;;;;;1.80;1.48;;;20.80;99.90;;;;;;5018651;28;20033;-71
2022/06/06 11:03:50;;;;;;;2.95;1.25;;;20.90;99.90;;;;;;5021875;28;20044;-69
2022/06/06 11:06:46;;;;;;;3.80;1.83;;;21.10;99.90;;;;;;5022863;28;20026;-71
2022/06/06 11:09:26;;;;;;;4.53;1.60;;;21.20;99.90;;;;;;5022816;28;20072;-68
2022/06/06 11:12:13;;;;;;;3.53;1.73;;;21.20;99.90;;;;;;5022818;28;20026;-67
2022/06/06 11:14:42;;;;;;;3.50;1.92;;;20.90;99.90;;;;;;5022979;28;20033;-70
2022/06/06 11:17:10;;;;;;;2.22;1.45;;;20.60;99.90;;;;;;5021990;28;20042;-72
2022/06/06 11:20:03;;;;;;;3.25;1.67;;;20.30;99.90;;;;;;5022161;28;20018;-69
2022/06/06 11:22:33;;;;;;;3.13;1.60;;;20.10;99.90;;;;;;5022716;28;20026;-71
2022/06/06 11:25:18;;;;;;;2.67;1.52;;;20.30;99.90;;;;;;5022253;28;20022;-68
2022/06/06 11:28:02;;;;;;;13.32;1.70;;;20.50;99.90;;;;;;5022454;28;20133;-69
2022/06/06 11:30:49;;;;;;;2.22;1.40;;;20.60;99.90;;;;;;5022259;28;20149;-67
2022/06/06 11:33:35;;;;;;;1.90;1.33;;;20.60;99.90;;;;;;5025752;28;20034;-70
2022/06/06 11:36:39;;;;;;;2.58;1.50;;;20.70;99.90;;;;;;5026531;28;20132;-73
2022/06/06 11:39:20;;;;;;;2.35;1.27;;;20.70;99.90;;;;;;5026566;28;20022;-72
2022/06/06 11:41:57;;;;;;;2.45;1.67;;;20.70;99.90;;;;;;5023824;28;20034;-69
2022/06/06 11:45:03;;;;;;;3.33;1.75;;;20.60;99.90;;;;;;5025593;28;20589;-73
2022/06/06 11:48:05;;;;;;;2.45;1.42;;;20.70;99.90;;;;;;5024822;28;20029;-69
2022/06/06 11:51:09;;;;;;;2.88;1.67;;;21.00;99.90;;;;;;5025561;28;20047;-70
2022/06/06 11:53:57;;;;;;;1.80;1.10;;;21.30;99.90;;;;;;5008162;28;20026;-73
2022/06/06 11:56:44;;;;;;;3.30;1.67;;;21.60;99.90;;;;;;5008474;28;20026;-70
2022/06/06 11:59:34;;;;;;;4.45;1.50;;;21.70;99.90;;;;;;5026118;28;20046;-71
2022/06/06 12:02:30;;;;;;;3.58;1.55;;;21.80;99.90;;;;;;5025065;28;20038;-70
2022/06/06 12:05:05;;;;;;;8.82;1.50;;;21.70;99.90;;;;;;5024780;28;20029;-73
2022/06/06 12:08:04;;;;;;;1.95;1.15;;;21.70;99.90;;;;;;5025219;28;20149;-69
2022/06/06 12:10:51;;;;;;;2.45;1.27;;;21.70;99.90;;;;;;5024668;28;20044;-72
2022/06/06 12:13:54;;;;;;;5.35;1.60;;;21.90;99.90;;;;;;5024296;28;20030;-70
2022/06/06 12:16:29;;;;;;;2.53;1.30;;;21.90;99.90;;;;;;5025077;28;20038;-71
2022/06/06 12:19:24;;;;;;;2.67;1.25;;;22.00;99.90;;;;;;5025324;28;20076;-72
2022/06/06 12:22:01;;;;;;;2.00;1.02;;;22.10;99.90;;;;;;5017398;28;20045;-72
2022/06/06 12:25:03;;;;;;;2.40;1.08;;;22.20;99.90;;;;;;5025525;28;20030;-72
2022/06/06 12:28:09;;;;;;;0.93;0.82;;;22.40;99.90;;;;;;5025696;28;20064;-70
2022/06/06 12:31:06;;;;;;;3.03;1.05;;;22.60;99.90;;;;;;5025214;28;20108;-69
2022/06/06 12:33:57;;;;;;;1.55;0.80;;;22.80;99.90;;;;;;5025255;28;20032;-67
2022/06/06 12:36:32;;;;;;;6.10;1.65;;;22.90;99.90;;;;;;5024789;28;20033;-69
2022/06/06 12:39:08;;;;;;;1.90;0.95;;;22.90;99.90;;;;;;5025131;28;20014;-68
2022/06/06 12:41:41;;;;;;;2.17;1.10;;;22.90;99.90;;;;;;5024050;28;20033;-69
2022/06/06 12:44:18;;;;;;;2.35;1.30;;;22.90;99.90;;;;;;5024731;28;20025;-72
2022/06/06 12:47:14;;;;;;;2.13;0.80;;;22.50;99.90;;;;;;5024793;28;20022;-71
2022/06/06 12:50:03;;;;;;;7.53;1.08;;;22.40;99.90;;;;;;5024995;28;20038;-68
2022/06/06 12:52:55;;;;;;;1.35;0.65;;;22.30;99.90;;;;;;5024896;28;20034;-71
2022/06/06 12:55:38;;;;;;;2.10;1.10;;;22.70;99.90;;;;;;5024861;28;20643;-73
2022/06/06 12:58:14;;;;;;;3.73;0.97;;;22.90;99.90;;;;;;5006285;28;20480;-72
2022/06/06 13:03:58;;;;;;;1.55;0.82;;;22.80;99.90;;;;;;5024954;28;20126;-72
2022/06/06 13:06:29;;;;;;;1.55;0.95;;;22.60;99.90;;;;;;5024787;28;20057;-70
2022/06/06 13:09:32;;;;;;;1.33;0.90;;;22.40;99.90;;;;;;5024852;28;20030;-72
2022/06/06 13:12:33;;;;;;;1.85;1.00;;;22.20;99.90;;;;;;5024434;28;20026;-67
2022/06/06 13:15:01;;;;;;;1.33;0.77;;;22.30;99.90;;;;;;4944944;29;20043;-70
2022/06/06 13:17:42;;;;;;;1.42;0.90;;;22.20;99.90;;;;;;5008582;28;20050;-68
2022/06/06 13:20:30;;;;;;;1.02;0.50;;;22.00;99.90;;;;;;5024398;28;20030;-74
2022/06/06 13:23:34;;;;;;;0.77;0.50;;;21.90;99.90;;;;;;5023096;28;20042;-67
2022/06/06 13:26:26;;;;;;;5.95;0.60;;;22.30;99.90;;;;;;4943039;28;20038;-70
2022/06/06 13:28:55;;;;;;;0.82;0.70;;;22.50;99.90;;;;;;5023045;28;20037;-72
2022/06/06 13:31:45;;;;;;;3.03;0.63;;;22.50;99.90;;;;;;5005502;28;20037;-70
2022/06/06 13:34:33;;;;;;;0.93;0.60;;;22.20;99.90;;;;;;5023181;28;20037;-67
2022/06/06 13:37:11;;;;;;;1.30;0.70;;;21.90;99.90;;;;;;5024166;28;20029;-70
2022/06/06 13:39:51;;;;;;;0.73;0.55;;;21.90;99.90;;;;;;5021834;28;20103;-68
2022/06/06 13:42:34;;;;;;;2.58;0.63;;;22.20;99.90;;;;;;5023860;28;20038;-68
2022/06/06 13:45:13;;;;;;;1.02;0.40;;;22.30;99.90;;;;;;5023771;28;20042;-70
2022/06/06 13:48:08;;;;;;;1.38;0.70;;;22.30;99.90;;;;;;5023098;28;20058;-67
2022/06/06 13:50:43;;;;;;;0.70;0.60;;;22.40;99.90;;;;;;5023664;28;20061;-69
2022/06/06 13:53:26;;;;;;;0.75;0.40;;;22.40;99.90;;;;;;5024158;28;20057;-69
2022/06/06 13:56:22;;;;;;;1.07;0.57;;;22.50;99.90;;;;;;5023082;28;20026;-70
2022/06/06 13:58:54;;;;;;;1.33;0.47;;;22.80;99.90;;;;;;5023064;28;20281;-67
2022/06/06 14:01:40;;;;;;;1.27;0.50;;;23.40;99.90;;;;;;5022781;28;20085;-69
2022/06/06 14:04:32;;;;;;;0.32;0.30;;;23.90;99.90;;;;;;5022298;28;20076;-72
2022/06/06 14:07:13;;;;;;;0.47;0.35;;;24.30;99.90;;;;;;5023041;28;20029;-71
2022/06/06 14:09:45;;;;;;;0.73;0.60;;;24.40;99.90;;;;;;5021632;28;20022;-70
2022/06/06 14:12:20;;;;;;;1.02;0.50;;;24.00;99.90;;;;;;5018969;28;20053;-68
2022/06/06 14:14:49;;;;;;;0.73;0.40;;;24.10;99.90;;;;;;5003659;28;20037;-70
2022/06/06 14:17:24;;;;;;;0.63;0.38;;;24.20;99.90;;;;;;5004961;28;20049;-71
2022/06/06 14:20:06;;;;;;;0.93;0.50;;;24.40;99.90;;;;;;5023321;28;20025;-73
2022/06/06 14:22:35;;;;;;;1.20;0.40;;;24.80;99.90;;;;;;5023727;28;20442;-69
2022/06/06 14:25:04;;;;;;;0.75;0.52;;;24.90;99.90;;;;;;5022191;28;20826;-69